sensor_id;sensor_type;location;lat;lon;timestamp;P1;durP1;ratioP1;P2;durP2;ratioP2
20076;SDS011;12348;42.710;23.378;2023-03-19T00:02:03;9.30;;;5.80;;
20076;SDS011;12348;42.710;23.378;2023-03-19T00:04:31;12.63;;;6.03;;
20076;SDS011;12348;42.710;23.378;2023-03-19T00:06:57;13.23;;;5.67;;
20076;SDS011;12348;42.710;23.378;2023-03-19T00:09:24;20.60;;;7.00;;
20076;SDS011;12348;42.710;23.378;2023-03-19T00:11:51;16.97;;;7.10;;
20076;SDS011;12348;42.710;23.378;2023-03-19T00:14:20;16.43;;;8.30;;
20076;SDS011;12348;42.710;23.378;2023-03-19T00:16:46;17.93;;;7.37;;
20076;SDS011;12348;42.710;23.378;2023-03-19T00:19:13;14.40;;;8.17;;
20076;SDS011;12348;42.710;23.378;2023-03-19T00:21:40;18.17;;;7.53;;
20076;SDS011;12348;42.710;23.378;2023-03-19T00:24:07;16.93;;;8.00;;
20076;SDS011;12348;42.710;23.378;2023-03-19T00:26:35;14.50;;;7.53;;
20076;SDS011;12348;42.710;23.378;2023-03-19T00:29:03;13.97;;;7.27;;
20076;SDS011;12348;42.710;23.378;2023-03-19T00:31:31;18.73;;;8.33;;
20076;SDS011;12348;42.710;23.378;2023-03-19T00:33:58;17.33;;;9.23;;
20076;SDS011;12348;42.710;23.378;2023-03-19T00:36:26;24.03;;;10.17;;
20076;SDS011;12348;42.710;23.378;2023-03-19T00:38:54;26.40;;;7.47;;
20076;SDS011;12348;42.710;23.378;2023-03-19T00:41:21;19.37;;;8.83;;
20076;SDS011;12348;42.710;23.378;2023-03-19T00:43:51;17.30;;;9.40;;
20076;SDS011;12348;42.710;23.378;2023-03-19T00:46:18;16.47;;;8.47;;
20076;SDS011;12348;42.710;23.378;2023-03-19T00:48:46;18.70;;;7.70;;
20076;SDS011;12348;42.710;23.378;2023-03-19T00:51:13;14.03;;;7.23;;
20076;SDS011;12348;42.710;23.378;2023-03-19T00:53:41;21.90;;;6.13;;
20076;SDS011;12348;42.710;23.378;2023-03-19T00:56:09;21.03;;;8.60;;
20076;SDS011;12348;42.710;23.378;2023-03-19T00:58:37;16.27;;;8.43;;
20076;SDS011;12348;42.710;23.378;2023-03-19T01:01:05;15.63;;;6.90;;
20076;SDS011;12348;42.710;23.378;2023-03-19T01:03:32;13.50;;;6.50;;
20076;SDS011;12348;42.710;23.378;2023-03-19T01:06:00;15.47;;;7.70;;
20076;SDS011;12348;42.710;23.378;2023-03-19T01:08:27;13.30;;;7.50;;
20076;SDS011;12348;42.710;23.378;2023-03-19T01:10:54;15.03;;;6.57;;
20076;SDS011;12348;42.710;23.378;2023-03-19T01:13:22;18.57;;;8.63;;
20076;SDS011;12348;42.710;23.378;2023-03-19T01:15:50;19.93;;;9.10;;
20076;SDS011;12348;42.710;23.378;2023-03-19T01:18:17;14.43;;;7.83;;
20076;SDS011;12348;42.710;23.378;2023-03-19T01:20:44;25.00;;;7.93;;
20076;SDS011;12348;42.710;23.378;2023-03-19T01:23:12;18.27;;;7.40;;
20076;SDS011;12348;42.710;23.378;2023-03-19T01:25:39;11.83;;;7.37;;
20076;SDS011;12348;42.710;23.378;2023-03-19T01:28:06;13.97;;;8.20;;
20076;SDS011;12348;42.710;23.378;2023-03-19T01:30:33;11.00;;;6.97;;
20076;SDS011;12348;42.710;23.378;2023-03-19T01:33:00;13.70;;;8.30;;
20076;SDS011;12348;42.710;23.378;2023-03-19T01:35:27;12.40;;;7.03;;
20076;SDS011;12348;42.710;23.378;2023-03-19T01:37:54;12.53;;;6.93;;
20076;SDS011;12348;42.710;23.378;2023-03-19T01:40:22;11.73;;;7.03;;
20076;SDS011;12348;42.710;23.378;2023-03-19T01:42:52;11.87;;;6.37;;
20076;SDS011;12348;42.710;23.378;2023-03-19T01:45:30;13.43;;;6.70;;
20076;SDS011;12348;42.710;23.378;2023-03-19T01:47:58;13.03;;;7.73;;
20076;SDS011;12348;42.710;23.378;2023-03-19T01:50:26;22.90;;;8.17;;
20076;SDS011;12348;42.710;23.378;2023-03-19T01:52:57;22.97;;;9.23;;
20076;SDS011;12348;42.710;23.378;2023-03-19T01:55:26;26.40;;;10.97;;
20076;SDS011;12348;42.710;23.378;2023-03-19T01:57:53;18.63;;;10.57;;
20076;SDS011;12348;42.710;23.378;2023-03-19T02:00:20;15.40;;;8.97;;
20076;SDS011;12348;42.710;23.378;2023-03-19T02:02:48;41.23;;;15.17;;
20076;SDS011;12348;42.710;23.378;2023-03-19T02:05:18;25.53;;;12.47;;
20076;SDS011;12348;42.710;23.378;2023-03-19T02:07:50;19.07;;;8.87;;
20076;SDS011;12348;42.710;23.378;2023-03-19T02:10:18;20.13;;;9.67;;
20076;SDS011;12348;42.710;23.378;2023-03-19T02:12:48;19.00;;;9.90;;
20076;SDS011;12348;42.710;23.378;2023-03-19T02:15:15;26.13;;;12.23;;
20076;SDS011;12348;42.710;23.378;2023-03-19T02:17:42;22.97;;;10.20;;
20076;SDS011;12348;42.710;23.378;2023-03-19T02:20:11;20.57;;;9.87;;
20076;SDS011;12348;42.710;23.378;2023-03-19T02:22:45;25.57;;;11.23;;
20076;SDS011;12348;42.710;23.378;2023-03-19T02:25:21;24.57;;;11.07;;
20076;SDS011;12348;42.710;23.378;2023-03-19T02:27:55;23.17;;;10.40;;
20076;SDS011;12348;42.710;23.378;2023-03-19T02:30:24;28.50;;;12.43;;
20076;SDS011;12348;42.710;23.378;2023-03-19T02:32:53;25.57;;;10.53;;
20076;SDS011;12348;42.710;23.378;2023-03-19T02:35:20;24.70;;;11.83;;
20076;SDS011;12348;42.710;23.378;2023-03-19T02:37:46;24.03;;;11.50;;
20076;SDS011;12348;42.710;23.378;2023-03-19T02:40:14;26.47;;;11.27;;
20076;SDS011;12348;42.710;23.378;2023-03-19T02:42:44;27.10;;;13.03;;
20076;SDS011;12348;42.710;23.378;2023-03-19T02:45:13;21.40;;;12.07;;
20076;SDS011;12348;42.710;23.378;2023-03-19T02:47:40;36.23;;;12.07;;
20076;SDS011;12348;42.710;23.378;2023-03-19T02:50:08;21.70;;;11.47;;
20076;SDS011;12348;42.710;23.378;2023-03-19T02:52:35;25.00;;;12.73;;
20076;SDS011;12348;42.710;23.378;2023-03-19T02:55:02;23.83;;;10.37;;
20076;SDS011;12348;42.710;23.378;2023-03-19T02:57:29;21.00;;;10.53;;
20076;SDS011;12348;42.710;23.378;2023-03-19T02:59:56;29.23;;;12.27;;
20076;SDS011;12348;42.710;23.378;2023-03-19T03:02:24;26.67;;;11.87;;
20076;SDS011;12348;42.710;23.378;2023-03-19T03:04:51;23.77;;;11.53;;
20076;SDS011;12348;42.710;23.378;2023-03-19T03:07:18;18.80;;;10.40;;
20076;SDS011;12348;42.710;23.378;2023-03-19T03:09:45;21.33;;;10.97;;
20076;SDS011;12348;42.710;23.378;2023-03-19T03:12:11;28.83;;;12.77;;
20076;SDS011;12348;42.710;23.378;2023-03-19T03:14:38;17.27;;;10.10;;
20076;SDS011;12348;42.710;23.378;2023-03-19T03:17:05;21.80;;;11.83;;
20076;SDS011;12348;42.710;23.378;2023-03-19T03:19:34;24.27;;;10.97;;
20076;SDS011;12348;42.710;23.378;2023-03-19T03:22:01;27.17;;;10.93;;
20076;SDS011;12348;42.710;23.378;2023-03-19T03:24:29;19.27;;;9.67;;
20076;SDS011;12348;42.710;23.378;2023-03-19T03:26:56;23.60;;;10.40;;
20076;SDS011;12348;42.710;23.378;2023-03-19T03:29:23;21.33;;;10.40;;
20076;SDS011;12348;42.710;23.378;2023-03-19T03:31:50;14.77;;;8.73;;
20076;SDS011;12348;42.710;23.378;2023-03-19T03:34:17;20.10;;;9.63;;
20076;SDS011;12348;42.710;23.378;2023-03-19T03:36:45;27.43;;;11.53;;
20076;SDS011;12348;42.710;23.378;2023-03-19T03:39:12;17.27;;;10.13;;
20076;SDS011;12348;42.710;23.378;2023-03-19T03:41:39;14.00;;;8.83;;
20076;SDS011;12348;42.710;23.378;2023-03-19T03:44:06;25.47;;;10.30;;
20076;SDS011;12348;42.710;23.378;2023-03-19T03:46:33;22.27;;;9.87;;
20076;SDS011;12348;42.710;23.378;2023-03-19T03:48:59;18.10;;;12.37;;
20076;SDS011;12348;42.710;23.378;2023-03-19T03:51:26;17.17;;;9.27;;
20076;SDS011;12348;42.710;23.378;2023-03-19T03:53:54;17.53;;;9.17;;
20076;SDS011;12348;42.710;23.378;2023-03-19T03:56:22;18.37;;;9.47;;
20076;SDS011;12348;42.710;23.378;2023-03-19T03:58:49;14.87;;;9.27;;
20076;SDS011;12348;42.710;23.378;2023-03-19T04:01:16;22.83;;;9.80;;
20076;SDS011;12348;42.710;23.378;2023-03-19T04:03:44;25.43;;;10.17;;
20076;SDS011;12348;42.710;23.378;2023-03-19T04:06:11;18.10;;;8.63;;
20076;SDS011;12348;42.710;23.378;2023-03-19T04:08:40;23.30;;;8.93;;
20076;SDS011;12348;42.710;23.378;2023-03-19T04:11:08;20.20;;;10.70;;
20076;SDS011;12348;42.710;23.378;2023-03-19T04:13:35;14.60;;;8.17;;
20076;SDS011;12348;42.710;23.378;2023-03-19T04:16:02;15.93;;;8.23;;
20076;SDS011;12348;42.710;23.378;2023-03-19T04:18:29;16.23;;;8.90;;
20076;SDS011;12348;42.710;23.378;2023-03-19T04:20:56;23.63;;;9.53;;
20076;SDS011;12348;42.710;23.378;2023-03-19T04:23:23;24.53;;;10.40;;
20076;SDS011;12348;42.710;23.378;2023-03-19T04:25:50;20.30;;;10.13;;
20076;SDS011;12348;42.710;23.378;2023-03-19T04:28:18;19.10;;;11.37;;
20076;SDS011;12348;42.710;23.378;2023-03-19T04:30:45;29.17;;;13.57;;
20076;SDS011;12348;42.710;23.378;2023-03-19T04:33:12;29.80;;;13.17;;
20076;SDS011;12348;42.710;23.378;2023-03-19T04:35:38;28.00;;;13.93;;
20076;SDS011;12348;42.710;23.378;2023-03-19T04:38:05;28.80;;;14.00;;
20076;SDS011;12348;42.710;23.378;2023-03-19T04:40:32;33.87;;;17.77;;
20076;SDS011;12348;42.710;23.378;2023-03-19T04:42:59;36.33;;;12.83;;
20076;SDS011;12348;42.710;23.378;2023-03-19T04:45:27;33.70;;;14.13;;
20076;SDS011;12348;42.710;23.378;2023-03-19T04:47:53;25.67;;;13.07;;
20076;SDS011;12348;42.710;23.378;2023-03-19T04:50:20;26.07;;;13.90;;
20076;SDS011;12348;42.710;23.378;2023-03-19T04:52:47;23.63;;;11.83;;
20076;SDS011;12348;42.710;23.378;2023-03-19T04:55:14;23.97;;;10.83;;
20076;SDS011;12348;42.710;23.378;2023-03-19T04:57:41;29.63;;;12.77;;
20076;SDS011;12348;42.710;23.378;2023-03-19T05:00:08;23.83;;;10.73;;
20076;SDS011;12348;42.710;23.378;2023-03-19T05:02:37;21.73;;;10.33;;
20076;SDS011;12348;42.710;23.378;2023-03-19T05:05:04;18.50;;;10.57;;
20076;SDS011;12348;42.710;23.378;2023-03-19T05:07:31;19.07;;;9.93;;
20076;SDS011;12348;42.710;23.378;2023-03-19T05:09:58;26.37;;;11.00;;
20076;SDS011;12348;42.710;23.378;2023-03-19T05:12:25;25.93;;;11.40;;
20076;SDS011;12348;42.710;23.378;2023-03-19T05:14:52;18.63;;;10.17;;
20076;SDS011;12348;42.710;23.378;2023-03-19T05:17:18;18.10;;;9.47;;
20076;SDS011;12348;42.710;23.378;2023-03-19T05:19:47;23.07;;;10.37;;
20076;SDS011;12348;42.710;23.378;2023-03-19T05:22:13;19.53;;;10.47;;
20076;SDS011;12348;42.710;23.378;2023-03-19T05:24:41;17.57;;;10.00;;
20076;SDS011;12348;42.710;23.378;2023-03-19T05:27:08;19.67;;;9.27;;
20076;SDS011;12348;42.710;23.378;2023-03-19T05:29:36;16.63;;;7.07;;
20076;SDS011;12348;42.710;23.378;2023-03-19T05:32:03;14.00;;;8.33;;
20076;SDS011;12348;42.710;23.378;2023-03-19T05:34:31;13.50;;;7.17;;
20076;SDS011;12348;42.710;23.378;2023-03-19T05:36:59;13.07;;;6.03;;
20076;SDS011;12348;42.710;23.378;2023-03-19T05:39:26;13.23;;;6.27;;
20076;SDS011;12348;42.710;23.378;2023-03-19T05:41:53;8.63;;;4.97;;
20076;SDS011;12348;42.710;23.378;2023-03-19T05:44:19;11.67;;;6.40;;
20076;SDS011;12348;42.710;23.378;2023-03-19T05:46:46;14.73;;;6.30;;
20076;SDS011;12348;42.710;23.378;2023-03-19T05:49:13;11.33;;;7.00;;
20076;SDS011;12348;42.710;23.378;2023-03-19T05:51:40;10.77;;;6.53;;
20076;SDS011;12348;42.710;23.378;2023-03-19T05:54:08;13.47;;;6.07;;
20076;SDS011;12348;42.710;23.378;2023-03-19T05:56:35;13.93;;;5.80;;
20076;SDS011;12348;42.710;23.378;2023-03-19T05:59:01;12.50;;;6.43;;
20076;SDS011;12348;42.710;23.378;2023-03-19T06:01:28;15.90;;;7.53;;
20076;SDS011;12348;42.710;23.378;2023-03-19T06:03:55;10.10;;;6.73;;
20076;SDS011;12348;42.710;23.378;2023-03-19T06:06:22;11.80;;;5.60;;
20076;SDS011;12348;42.710;23.378;2023-03-19T06:08:49;11.40;;;5.97;;
20076;SDS011;12348;42.710;23.378;2023-03-19T06:11:17;13.47;;;6.67;;
20076;SDS011;12348;42.710;23.378;2023-03-19T06:13:44;10.73;;;6.10;;
20076;SDS011;12348;42.710;23.378;2023-03-19T06:16:13;9.23;;;6.30;;
20076;SDS011;12348;42.710;23.378;2023-03-19T06:18:39;13.77;;;6.43;;
20076;SDS011;12348;42.710;23.378;2023-03-19T06:21:06;10.17;;;5.63;;
20076;SDS011;12348;42.710;23.378;2023-03-19T06:23:33;11.37;;;6.13;;
20076;SDS011;12348;42.710;23.378;2023-03-19T06:26:00;10.33;;;6.17;;
20076;SDS011;12348;42.710;23.378;2023-03-19T06:28:28;12.97;;;6.40;;
20076;SDS011;12348;42.710;23.378;2023-03-19T06:30:54;10.23;;;5.77;;
20076;SDS011;12348;42.710;23.378;2023-03-19T06:33:21;14.60;;;6.73;;
20076;SDS011;12348;42.710;23.378;2023-03-19T06:35:51;11.57;;;5.87;;
20076;SDS011;12348;42.710;23.378;2023-03-19T06:38:18;13.40;;;6.10;;
20076;SDS011;12348;42.710;23.378;2023-03-19T06:40:45;9.17;;;4.83;;
20076;SDS011;12348;42.710;23.378;2023-03-19T06:43:12;9.70;;;5.50;;
20076;SDS011;12348;42.710;23.378;2023-03-19T06:45:40;10.57;;;6.03;;
20076;SDS011;12348;42.710;23.378;2023-03-19T06:48:07;9.20;;;5.47;;
20076;SDS011;12348;42.710;23.378;2023-03-19T06:50:34;6.83;;;4.57;;
20076;SDS011;12348;42.710;23.378;2023-03-19T06:53:00;8.97;;;5.60;;
20076;SDS011;12348;42.710;23.378;2023-03-19T06:55:27;10.53;;;6.07;;
20076;SDS011;12348;42.710;23.378;2023-03-19T06:57:55;11.53;;;5.87;;
20076;SDS011;12348;42.710;23.378;2023-03-19T07:00:22;10.20;;;5.90;;
20076;SDS011;12348;42.710;23.378;2023-03-19T07:02:50;10.27;;;6.47;;
20076;SDS011;12348;42.710;23.378;2023-03-19T07:05:17;14.83;;;6.70;;
20076;SDS011;12348;42.710;23.378;2023-03-19T07:07:44;12.37;;;6.00;;
20076;SDS011;12348;42.710;23.378;2023-03-19T07:12:43;11.60;;;6.57;;
20076;SDS011;12348;42.710;23.378;2023-03-19T07:15:10;10.70;;;6.20;;
20076;SDS011;12348;42.710;23.378;2023-03-19T07:17:38;10.93;;;6.27;;
20076;SDS011;12348;42.710;23.378;2023-03-19T07:20:07;17.17;;;9.70;;
20076;SDS011;12348;42.710;23.378;2023-03-19T07:22:35;12.23;;;7.13;;
20076;SDS011;12348;42.710;23.378;2023-03-19T07:25:04;20.30;;;7.43;;
20076;SDS011;12348;42.710;23.378;2023-03-19T07:27:32;17.20;;;8.37;;
20076;SDS011;12348;42.710;23.378;2023-03-19T07:29:59;15.00;;;7.90;;
20076;SDS011;12348;42.710;23.378;2023-03-19T07:32:26;12.33;;;6.97;;
20076;SDS011;12348;42.710;23.378;2023-03-19T07:34:53;13.17;;;7.50;;
20076;SDS011;12348;42.710;23.378;2023-03-19T07:37:22;10.60;;;6.17;;
20076;SDS011;12348;42.710;23.378;2023-03-19T07:39:49;11.27;;;6.90;;
20076;SDS011;12348;42.710;23.378;2023-03-19T07:42:16;12.90;;;7.23;;
20076;SDS011;12348;42.710;23.378;2023-03-19T07:44:42;13.93;;;6.80;;
20076;SDS011;12348;42.710;23.378;2023-03-19T07:47:09;13.73;;;6.93;;
20076;SDS011;12348;42.710;23.378;2023-03-19T07:49:36;12.47;;;7.10;;
20076;SDS011;12348;42.710;23.378;2023-03-19T07:52:03;12.73;;;6.63;;
20076;SDS011;12348;42.710;23.378;2023-03-19T07:54:32;11.33;;;6.17;;
20076;SDS011;12348;42.710;23.378;2023-03-19T07:56:58;11.93;;;7.30;;
20076;SDS011;12348;42.710;23.378;2023-03-19T07:59:25;7.87;;;5.20;;
20076;SDS011;12348;42.710;23.378;2023-03-19T08:01:52;10.73;;;5.63;;
20076;SDS011;12348;42.710;23.378;2023-03-19T08:04:19;7.73;;;5.63;;
20076;SDS011;12348;42.710;23.378;2023-03-19T08:06:46;10.23;;;4.73;;
20076;SDS011;12348;42.710;23.378;2023-03-19T08:09:13;10.73;;;5.37;;
20076;SDS011;12348;42.710;23.378;2023-03-19T08:11:42;9.03;;;5.77;;
20076;SDS011;12348;42.710;23.378;2023-03-19T08:14:08;11.90;;;5.97;;
20076;SDS011;12348;42.710;23.378;2023-03-19T08:16:36;6.60;;;5.00;;
20076;SDS011;12348;42.710;23.378;2023-03-19T08:19:03;10.57;;;5.67;;
20076;SDS011;12348;42.710;23.378;2023-03-19T08:21:30;13.77;;;5.37;;
20076;SDS011;12348;42.710;23.378;2023-03-19T08:23:57;9.70;;;4.93;;
20076;SDS011;12348;42.710;23.378;2023-03-19T08:26:24;9.13;;;4.73;;
20076;SDS011;12348;42.710;23.378;2023-03-19T08:28:53;10.57;;;5.27;;
20076;SDS011;12348;42.710;23.378;2023-03-19T08:31:19;8.67;;;4.83;;
20076;SDS011;12348;42.710;23.378;2023-03-19T08:33:46;10.00;;;5.10;;
20076;SDS011;12348;42.710;23.378;2023-03-19T08:36:13;8.00;;;5.30;;
20076;SDS011;12348;42.710;23.378;2023-03-19T08:38:40;13.30;;;5.80;;
20076;SDS011;12348;42.710;23.378;2023-03-19T08:41:08;17.50;;;8.57;;
20076;SDS011;12348;42.710;23.378;2023-03-19T08:43:35;14.80;;;9.63;;
20076;SDS011;12348;42.710;23.378;2023-03-19T08:46:04;18.70;;;8.67;;
20076;SDS011;12348;42.710;23.378;2023-03-19T08:48:31;11.90;;;6.97;;
20076;SDS011;12348;42.710;23.378;2023-03-19T08:50:58;11.00;;;5.40;;
20076;SDS011;12348;42.710;23.378;2023-03-19T08:53:28;14.40;;;7.97;;
20076;SDS011;12348;42.710;23.378;2023-03-19T08:55:56;10.23;;;6.00;;
20076;SDS011;12348;42.710;23.378;2023-03-19T08:58:25;15.10;;;6.53;;
20076;SDS011;12348;42.710;23.378;2023-03-19T09:00:52;14.07;;;7.33;;
20076;SDS011;12348;42.710;23.378;2023-03-19T09:03:27;11.17;;;6.20;;
20076;SDS011;12348;42.710;23.378;2023-03-19T09:05:56;8.43;;;5.03;;
20076;SDS011;12348;42.710;23.378;2023-03-19T09:08:24;14.30;;;7.53;;
20076;SDS011;12348;42.710;23.378;2023-03-19T09:10:51;10.93;;;6.37;;
20076;SDS011;12348;42.710;23.378;2023-03-19T09:13:18;9.47;;;5.63;;
20076;SDS011;12348;42.710;23.378;2023-03-19T09:15:44;13.43;;;6.87;;
20076;SDS011;12348;42.710;23.378;2023-03-19T09:18:11;9.07;;;5.37;;
20076;SDS011;12348;42.710;23.378;2023-03-19T09:20:39;8.40;;;5.80;;
20076;SDS011;12348;42.710;23.378;2023-03-19T09:23:06;13.03;;;5.27;;
20076;SDS011;12348;42.710;23.378;2023-03-19T09:25:33;9.40;;;5.23;;
20076;SDS011;12348;42.710;23.378;2023-03-19T09:28:00;7.93;;;4.90;;
20076;SDS011;12348;42.710;23.378;2023-03-19T09:30:27;6.33;;;4.03;;
20076;SDS011;12348;42.710;23.378;2023-03-19T09:32:54;10.10;;;5.43;;
20076;SDS011;12348;42.710;23.378;2023-03-19T09:35:20;10.53;;;5.70;;
20076;SDS011;12348;42.710;23.378;2023-03-19T09:37:48;9.17;;;4.93;;
20076;SDS011;12348;42.710;23.378;2023-03-19T09:40:19;11.20;;;5.97;;
20076;SDS011;12348;42.710;23.378;2023-03-19T09:42:51;12.57;;;6.67;;
20076;SDS011;12348;42.710;23.378;2023-03-19T09:45:24;14.23;;;8.13;;
20076;SDS011;12348;42.710;23.378;2023-03-19T09:47:54;10.67;;;5.97;;
20076;SDS011;12348;42.710;23.378;2023-03-19T09:50:24;10.43;;;6.83;;
20076;SDS011;12348;42.710;23.378;2023-03-19T09:52:55;7.97;;;5.27;;
20076;SDS011;12348;42.710;23.378;2023-03-19T09:55:37;10.57;;;6.33;;
20076;SDS011;12348;42.710;23.378;2023-03-19T09:58:09;5.90;;;4.43;;
20076;SDS011;12348;42.710;23.378;2023-03-19T10:00:40;13.50;;;5.20;;
20076;SDS011;12348;42.710;23.378;2023-03-19T10:03:12;10.10;;;5.40;;
20076;SDS011;12348;42.710;23.378;2023-03-19T10:05:53;11.17;;;6.27;;
20076;SDS011;12348;42.710;23.378;2023-03-19T10:08:34;13.47;;;7.13;;
20076;SDS011;12348;42.710;23.378;2023-03-19T10:14:06;14.83;;;9.23;;
20076;SDS011;12348;42.710;23.378;2023-03-19T10:16:45;10.90;;;6.27;;
20076;SDS011;12348;42.710;23.378;2023-03-19T10:19:17;13.73;;;7.60;;
20076;SDS011;12348;42.710;23.378;2023-03-19T10:21:51;10.53;;;6.17;;
20076;SDS011;12348;42.710;23.378;2023-03-19T10:24:25;8.33;;;5.67;;
20076;SDS011;12348;42.710;23.378;2023-03-19T10:26:56;8.90;;;6.00;;
20076;SDS011;12348;42.710;23.378;2023-03-19T10:29:26;13.33;;;7.50;;
20076;SDS011;12348;42.710;23.378;2023-03-19T10:31:56;8.23;;;5.23;;
20076;SDS011;12348;42.710;23.378;2023-03-19T10:34:29;12.93;;;5.90;;
20076;SDS011;12348;42.710;23.378;2023-03-19T10:36:58;7.67;;;4.80;;
20076;SDS011;12348;42.710;23.378;2023-03-19T10:39:29;10.73;;;5.00;;
20076;SDS011;12348;42.710;23.378;2023-03-19T10:41:59;7.27;;;4.50;;
20076;SDS011;12348;42.710;23.378;2023-03-19T10:44:36;7.03;;;4.60;;
20076;SDS011;12348;42.710;23.378;2023-03-19T10:47:09;8.00;;;4.00;;
20076;SDS011;12348;42.710;23.378;2023-03-19T10:49:37;7.17;;;4.23;;
20076;SDS011;12348;42.710;23.378;2023-03-19T10:52:04;7.60;;;4.33;;
20076;SDS011;12348;42.710;23.378;2023-03-19T10:54:33;11.43;;;4.63;;
20076;SDS011;12348;42.710;23.378;2023-03-19T10:57:09;6.57;;;3.67;;
20076;SDS011;12348;42.710;23.378;2023-03-19T10:59:47;5.63;;;3.57;;
20076;SDS011;12348;42.710;23.378;2023-03-19T11:02:14;4.10;;;3.07;;
20076;SDS011;12348;42.710;23.378;2023-03-19T11:04:43;6.87;;;3.13;;
20076;SDS011;12348;42.710;23.378;2023-03-19T11:07:11;5.47;;;3.23;;
20076;SDS011;12348;42.710;23.378;2023-03-19T11:09:43;7.97;;;3.33;;
20076;SDS011;12348;42.710;23.378;2023-03-19T11:12:16;16.07;;;8.53;;
20076;SDS011;12348;42.710;23.378;2023-03-19T11:14:46;5.00;;;3.27;;
20076;SDS011;12348;42.710;23.378;2023-03-19T11:17:16;5.80;;;3.13;;
20076;SDS011;12348;42.710;23.378;2023-03-19T11:19:48;4.23;;;2.53;;
20076;SDS011;12348;42.710;23.378;2023-03-19T11:22:19;5.63;;;2.73;;
20076;SDS011;12348;42.710;23.378;2023-03-19T11:24:49;3.47;;;2.57;;
20076;SDS011;12348;42.710;23.378;2023-03-19T11:27:18;9.40;;;4.47;;
20076;SDS011;12348;42.710;23.378;2023-03-19T11:29:52;5.13;;;2.80;;
20076;SDS011;12348;42.710;23.378;2023-03-19T11:32:32;5.23;;;3.20;;
20076;SDS011;12348;42.710;23.378;2023-03-19T11:35:16;7.63;;;4.53;;
20076;SDS011;12348;42.710;23.378;2023-03-19T11:37:49;9.67;;;4.83;;
20076;SDS011;12348;42.710;23.378;2023-03-19T11:40:25;5.37;;;3.13;;
20076;SDS011;12348;42.710;23.378;2023-03-19T11:46:07;13.13;;;6.40;;
20076;SDS011;12348;42.710;23.378;2023-03-19T11:51:35;6.20;;;3.87;;
20076;SDS011;12348;42.710;23.378;2023-03-19T11:54:09;5.57;;;3.40;;
20076;SDS011;12348;42.710;23.378;2023-03-19T11:56:47;3.93;;;2.67;;
20076;SDS011;12348;42.710;23.378;2023-03-19T11:59:31;4.40;;;2.77;;
20076;SDS011;12348;42.710;23.378;2023-03-19T12:02:24;4.00;;;2.60;;
20076;SDS011;12348;42.710;23.378;2023-03-19T12:05:17;14.13;;;6.43;;
20076;SDS011;12348;42.710;23.378;2023-03-19T12:10:46;7.23;;;4.00;;
20076;SDS011;12348;42.710;23.378;2023-03-19T12:13:30;6.03;;;3.07;;
20076;SDS011;12348;42.710;23.378;2023-03-19T12:16:07;7.50;;;4.37;;
20076;SDS011;12348;42.710;23.378;2023-03-19T12:18:47;4.17;;;2.40;;
20076;SDS011;12348;42.710;23.378;2023-03-19T12:21:27;4.30;;;2.87;;
20076;SDS011;12348;42.710;23.378;2023-03-19T12:24:08;4.07;;;2.50;;
20076;SDS011;12348;42.710;23.378;2023-03-19T12:26:44;5.60;;;3.30;;
20076;SDS011;12348;42.710;23.378;2023-03-19T12:29:22;2.97;;;2.60;;
20076;SDS011;12348;42.710;23.378;2023-03-19T12:31:57;2.43;;;1.97;;
20076;SDS011;12348;42.710;23.378;2023-03-19T12:34:39;6.27;;;3.10;;
20076;SDS011;12348;42.710;23.378;2023-03-19T12:37:12;3.53;;;2.40;;
20076;SDS011;12348;42.710;23.378;2023-03-19T12:39:47;5.60;;;2.93;;
20076;SDS011;12348;42.710;23.378;2023-03-19T12:42:20;5.37;;;3.40;;
20076;SDS011;12348;42.710;23.378;2023-03-19T12:44:52;2.10;;;1.90;;
20076;SDS011;12348;42.710;23.378;2023-03-19T12:47:24;10.67;;;6.23;;
20076;SDS011;12348;42.710;23.378;2023-03-19T12:49:55;4.37;;;2.60;;
20076;SDS011;12348;42.710;23.378;2023-03-19T12:52:27;8.07;;;3.13;;
20076;SDS011;12348;42.710;23.378;2023-03-19T12:55:00;6.63;;;2.90;;
20076;SDS011;12348;42.710;23.378;2023-03-19T12:57:33;3.17;;;1.90;;
20076;SDS011;12348;42.710;23.378;2023-03-19T13:00:06;5.20;;;2.57;;
20076;SDS011;12348;42.710;23.378;2023-03-19T13:02:41;5.77;;;2.57;;
20076;SDS011;12348;42.710;23.378;2023-03-19T13:05:16;3.93;;;2.60;;
20076;SDS011;12348;42.710;23.378;2023-03-19T13:07:51;7.97;;;5.00;;
20076;SDS011;12348;42.710;23.378;2023-03-19T13:10:23;6.37;;;3.83;;
20076;SDS011;12348;42.710;23.378;2023-03-19T13:12:51;6.10;;;2.87;;
20076;SDS011;12348;42.710;23.378;2023-03-19T13:15:22;2.30;;;1.63;;
20076;SDS011;12348;42.710;23.378;2023-03-19T13:17:56;4.93;;;2.17;;
20076;SDS011;12348;42.710;23.378;2023-03-19T13:20:35;10.13;;;3.10;;
20076;SDS011;12348;42.710;23.378;2023-03-19T13:23:17;2.70;;;1.63;;
20076;SDS011;12348;42.710;23.378;2023-03-19T13:25:48;2.20;;;1.77;;
20076;SDS011;12348;42.710;23.378;2023-03-19T13:28:19;5.13;;;2.67;;
20076;SDS011;12348;42.710;23.378;2023-03-19T13:31:01;3.30;;;1.73;;
20076;SDS011;12348;42.710;23.378;2023-03-19T13:33:30;2.50;;;1.93;;
20076;SDS011;12348;42.710;23.378;2023-03-19T13:35:59;5.10;;;2.30;;
20076;SDS011;12348;42.710;23.378;2023-03-19T13:38:32;1.83;;;1.23;;
20076;SDS011;12348;42.710;23.378;2023-03-19T13:41:04;2.07;;;1.30;;
20076;SDS011;12348;42.710;23.378;2023-03-19T13:43:52;2.13;;;1.03;;
20076;SDS011;12348;42.710;23.378;2023-03-19T13:46:38;1.20;;;1.10;;
20076;SDS011;12348;42.710;23.378;2023-03-19T13:49:21;1.93;;;1.23;;
20076;SDS011;12348;42.710;23.378;2023-03-19T13:51:52;2.17;;;1.23;;
20076;SDS011;12348;42.710;23.378;2023-03-19T13:54:30;1.63;;;1.10;;
20076;SDS011;12348;42.710;23.378;2023-03-19T13:57:04;2.23;;;1.20;;
20076;SDS011;12348;42.710;23.378;2023-03-19T13:59:43;1.90;;;1.17;;
20076;SDS011;12348;42.710;23.378;2023-03-19T14:05:31;2.83;;;1.30;;
20076;SDS011;12348;42.710;23.378;2023-03-19T14:07:59;1.27;;;1.10;;
20076;SDS011;12348;42.710;23.378;2023-03-19T14:10:26;4.33;;;1.13;;
20076;SDS011;12348;42.710;23.378;2023-03-19T14:13:03;4.83;;;2.00;;
20076;SDS011;12348;42.710;23.378;2023-03-19T14:15:32;3.10;;;1.43;;
20076;SDS011;12348;42.710;23.378;2023-03-19T14:18:01;3.17;;;1.60;;
20076;SDS011;12348;42.710;23.378;2023-03-19T14:20:32;3.40;;;2.07;;
20076;SDS011;12348;42.710;23.378;2023-03-19T14:23:11;2.50;;;1.90;;
20076;SDS011;12348;42.710;23.378;2023-03-19T14:26:00;4.07;;;2.20;;
20076;SDS011;12348;42.710;23.378;2023-03-19T14:28:37;3.30;;;2.03;;
20076;SDS011;12348;42.710;23.378;2023-03-19T14:31:24;5.23;;;2.23;;
20076;SDS011;12348;42.710;23.378;2023-03-19T14:33:58;6.13;;;2.47;;
20076;SDS011;12348;42.710;23.378;2023-03-19T14:36:29;2.13;;;1.70;;
20076;SDS011;12348;42.710;23.378;2023-03-19T14:38:58;4.83;;;2.00;;
20076;SDS011;12348;42.710;23.378;2023-03-19T14:41:28;3.60;;;1.80;;
20076;SDS011;12348;42.710;23.378;2023-03-19T14:44:12;2.97;;;1.60;;
20076;SDS011;12348;42.710;23.378;2023-03-19T14:47:02;2.93;;;1.70;;
20076;SDS011;12348;42.710;23.378;2023-03-19T14:52:58;2.63;;;1.90;;
20076;SDS011;12348;42.710;23.378;2023-03-19T14:55:33;3.80;;;2.27;;
20076;SDS011;12348;42.710;23.378;2023-03-19T14:58:01;4.47;;;1.83;;
20076;SDS011;12348;42.710;23.378;2023-03-19T15:00:28;5.13;;;2.80;;